createdAt,value
2017-09-29T00:00:33.689Z,17.63
2017-09-29T00:01:14.243Z,17.59
2017-09-29T00:01:54.789Z,17.58
2017-09-29T00:02:35.307Z,17.62
2017-09-29T00:03:15.870Z,17.55
2017-09-29T00:03:56.379Z,17.54
2017-09-29T00:04:36.919Z,17.52
2017-09-29T00:05:17.454Z,17.54
2017-09-29T00:05:57.987Z,17.51
2017-09-29T00:06:38.527Z,17.54
2017-09-29T00:07:19.048Z,17.43
2017-09-29T00:07:59.600Z,17.44
2017-09-29T00:08:40.126Z,17.41
2017-09-29T00:09:20.672Z,17.38
2017-09-29T00:10:01.207Z,17.44
2017-09-29T00:10:41.731Z,17.4
2017-09-29T00:11:22.260Z,17.43
2017-09-29T00:12:02.807Z,17.48
2017-09-29T00:12:43.334Z,17.33
2017-09-29T00:13:23.869Z,17.38
2017-09-29T00:14:04.411Z,17.36
2017-09-29T00:14:44.936Z,17.34
2017-09-29T00:15:25.460Z,17.31
2017-09-29T00:16:05.981Z,17.4
2017-09-29T00:16:46.529Z,17.41
2017-09-29T00:17:27.058Z,17.33
2017-09-29T00:18:07.589Z,17.41
2017-09-29T00:18:48.120Z,17.34
2017-09-29T00:19:28.646Z,17.44
2017-09-29T00:20:09.184Z,17.38
2017-09-29T00:20:49.716Z,17.34
2017-09-29T00:21:30.257Z,17.3
2017-09-29T00:22:10.800Z,17.36
2017-09-29T00:22:51.336Z,17.37
2017-09-29T00:23:31.874Z,17.33
2017-09-29T00:24:12.407Z,17.3
2017-09-29T00:24:52.958Z,17.43
2017-09-29T00:25:33.490Z,17.44
2017-09-29T00:26:14.028Z,17.3
2017-09-29T00:26:54.557Z,17.36
2017-09-29T00:27:35.063Z,17.31
2017-09-29T00:28:15.617Z,17.28
2017-09-29T00:28:56.178Z,17.3
2017-09-29T00:29:36.706Z,17.3
2017-09-29T00:30:17.233Z,17.33
2017-09-29T00:30:57.786Z,17.3
2017-09-29T00:31:38.315Z,17.33
2017-09-29T00:32:18.855Z,17.37
2017-09-29T00:32:59.376Z,17.38
2017-09-29T00:33:39.902Z,17.44
2017-09-29T00:34:20.441Z,17.4
2017-09-29T00:35:00.966Z,17.38
2017-09-29T00:35:41.500Z,17.37
2017-09-29T00:36:22.029Z,17.4
2017-09-29T00:37:02.568Z,17.44
2017-09-29T00:37:43.106Z,17.4
2017-09-29T00:38:23.645Z,17.43
2017-09-29T00:39:04.191Z,17.44
2017-09-29T00:39:44.745Z,17.4
2017-09-29T00:40:25.261Z,17.48
2017-09-29T00:41:05.796Z,17.43
2017-09-29T00:41:46.335Z,17.46
2017-09-29T00:42:26.865Z,17.46
2017-09-29T00:43:07.394Z,17.49
2017-09-29T00:43:47.929Z,17.41
2017-09-29T00:44:28.465Z,17.46
2017-09-29T00:45:09.003Z,17.48
2017-09-29T00:45:49.528Z,17.55
2017-09-29T00:46:30.068Z,17.46
2017-09-29T00:47:10.608Z,17.43
2017-09-29T00:47:51.147Z,17.43
2017-09-29T00:48:31.676Z,17.44
2017-09-29T00:49:12.211Z,17.44
2017-09-29T00:49:52.744Z,17.49
2017-09-29T00:50:33.270Z,17.44
2017-09-29T00:51:13.801Z,17.4
2017-09-29T00:51:54.323Z,17.44
2017-09-29T00:52:34.880Z,17.41
2017-09-29T00:53:15.405Z,17.4
2017-09-29T00:53:55.952Z,17.36
2017-09-29T00:54:36.467Z,17.36
2017-09-29T00:55:17.013Z,17.4
2017-09-29T00:55:57.522Z,17.38
2017-09-29T00:56:38.038Z,17.38
2017-09-29T00:57:18.575Z,17.4
2017-09-29T00:57:59.102Z,17.41
2017-09-29T00:58:39.637Z,17.36
2017-09-29T00:59:20.148Z,17.38
2017-09-29T01:00:00.680Z,17.37
2017-09-29T01:00:41.310Z,17.37
2017-09-29T01:01:21.799Z,17.34
2017-09-29T01:02:03.994Z,17.43
2017-09-29T01:02:44.519Z,17.33
2017-09-29T01:03:25.042Z,17.37
2017-09-29T01:04:05.576Z,17.4
2017-09-29T01:04:46.106Z,17.4
2017-09-29T01:05:26.633Z,17.38
2017-09-29T01:06:07.178Z,17.33
2017-09-29T01:06:47.721Z,17.38
2017-09-29T01:07:28.260Z,17.37
2017-09-29T01:08:08.802Z,17.38
2017-09-29T01:08:49.361Z,17.4
2017-09-29T01:09:29.892Z,17.43
2017-09-29T01:10:10.430Z,17.4
2017-09-29T01:10:50.947Z,17.36
2017-09-29T01:11:31.479Z,17.38
2017-09-29T01:12:12.015Z,17.41
2017-09-29T01:12:52.545Z,17.31
2017-09-29T01:13:33.069Z,17.44
2017-09-29T01:14:13.609Z,17.38
2017-09-29T01:14:54.134Z,17.3
2017-09-29T01:15:34.663Z,17.34
2017-09-29T01:16:15.220Z,17.31
2017-09-29T01:16:55.756Z,17.26
2017-09-29T01:17:36.303Z,17.28
2017-09-29T01:18:16.834Z,17.22
2017-09-29T01:18:57.361Z,17.31
2017-09-29T01:19:37.899Z,17.16
2017-09-29T01:20:18.433Z,17.19
2017-09-29T01:20:58.954Z,17.23
2017-09-29T01:21:39.490Z,17.22
2017-09-29T01:22:20.021Z,17.33
2017-09-29T01:23:00.538Z,17.33
2017-09-29T01:23:41.077Z,17.3
2017-09-29T01:24:21.597Z,17.23
2017-09-29T01:25:02.127Z,17.23
2017-09-29T01:25:42.652Z,17.28
2017-09-29T01:26:23.192Z,17.25
2017-09-29T01:27:03.738Z,17.3
2017-09-29T01:27:44.272Z,17.22
2017-09-29T01:28:24.817Z,17.23
2017-09-29T01:29:05.344Z,17.28
2017-09-29T01:29:45.882Z,17.26
2017-09-29T01:30:26.405Z,17.21
2017-09-29T01:31:06.944Z,17.31
2017-09-29T01:31:47.474Z,17.28
2017-09-29T01:32:28.001Z,17.22
2017-09-29T01:33:08.531Z,17.25
2017-09-29T01:33:49.077Z,17.16
2017-09-29T01:34:29.600Z,17.34
2017-09-29T01:35:10.146Z,17.31
2017-09-29T01:35:50.684Z,17.33
2017-09-29T01:36:31.230Z,17.22
2017-09-29T01:37:11.777Z,17.26
2017-09-29T01:37:52.314Z,17.23
2017-09-29T01:38:32.837Z,17.21
2017-09-29T01:39:13.374Z,17.22
2017-09-29T01:39:53.915Z,17.28
2017-09-29T01:40:34.448Z,17.3
2017-09-29T01:41:14.978Z,17.28
2017-09-29T01:41:55.516Z,17.25
2017-09-29T01:42:36.041Z,17.21
2017-09-29T01:43:16.571Z,17.21
2017-09-29T01:43:57.115Z,17.19
2017-09-29T01:44:37.636Z,17.26
2017-09-29T01:45:18.184Z,17.18
2017-09-29T01:45:58.725Z,17.33
2017-09-29T01:46:39.248Z,17.19
2017-09-29T01:47:19.779Z,17.23
2017-09-29T01:48:00.318Z,17.26
2017-09-29T01:48:40.854Z,17.21
2017-09-29T01:49:21.386Z,17.21
2017-09-29T01:50:01.932Z,17.23
2017-09-29T01:50:42.473Z,17.23
2017-09-29T01:51:23.011Z,17.22
2017-09-29T01:52:03.541Z,17.26
2017-09-29T01:52:44.073Z,17.22
2017-09-29T01:53:24.598Z,17.22
2017-09-29T01:54:05.138Z,17.26
2017-09-29T01:54:45.675Z,17.21
2017-09-29T01:55:26.208Z,17.18
2017-09-29T01:56:06.737Z,17.26
2017-09-29T01:56:47.282Z,17.18
2017-09-29T01:57:27.804Z,17.26
2017-09-29T01:58:08.328Z,17.26
2017-09-29T01:58:48.861Z,17.26
2017-09-29T01:59:29.366Z,17.26
2017-09-29T02:00:09.913Z,17.3
2017-09-29T02:00:50.451Z,17.23
2017-09-29T02:01:30.983Z,17.23
2017-09-29T02:02:11.517Z,17.21
2017-09-29T02:02:52.051Z,17.16
2017-09-29T02:03:32.579Z,17.16
2017-09-29T02:04:13.107Z,17.21
2017-09-29T02:04:53.644Z,17.18
2017-09-29T02:05:34.170Z,17.16
2017-09-29T02:06:14.687Z,17.18
2017-09-29T02:06:55.219Z,17.26
2017-09-29T02:07:35.757Z,17.21
2017-09-29T02:08:16.285Z,17.16
2017-09-29T02:08:56.838Z,17.15
2017-09-29T02:09:37.377Z,17.19
2017-09-29T02:10:17.905Z,17.23
2017-09-29T02:10:58.451Z,17.21
2017-09-29T02:11:38.975Z,17.18
2017-09-29T02:12:19.520Z,17.22
2017-09-29T02:13:00.045Z,17.21
2017-09-29T02:13:40.571Z,17.23
2017-09-29T02:14:21.094Z,17.19
2017-09-29T02:15:01.634Z,17.21
2017-09-29T02:15:42.165Z,17.23
2017-09-29T02:16:22.699Z,17.18
2017-09-29T02:17:03.234Z,17.19
2017-09-29T02:17:43.758Z,17.18
2017-09-29T02:18:24.297Z,17.21
2017-09-29T02:19:04.834Z,17.21
2017-09-29T02:19:45.358Z,17.22
2017-09-29T02:20:25.894Z,17.21
2017-09-29T02:21:06.433Z,17.19
2017-09-29T02:21:46.973Z,17.19
2017-09-29T02:22:27.502Z,17.22
2017-09-29T02:23:08.058Z,17.16
2017-09-29T02:23:48.596Z,17.15
2017-09-29T02:24:29.121Z,17.21
2017-09-29T02:25:09.660Z,17.16
2017-09-29T02:25:50.196Z,17.19
2017-09-29T02:26:30.726Z,17.28
2017-09-29T02:27:11.255Z,17.18
2017-09-29T02:27:51.786Z,17.21
2017-09-29T02:28:32.341Z,17.25
2017-09-29T02:29:12.873Z,17.28
2017-09-29T02:29:53.415Z,17.22
2017-09-29T02:30:33.954Z,17.25
2017-09-29T02:31:14.490Z,17.22
2017-09-29T02:31:55.046Z,17.3
2017-09-29T02:32:35.582Z,17.22
2017-09-29T02:33:16.105Z,17.34
2017-09-29T02:33:56.657Z,17.19
2017-09-29T02:34:37.184Z,17.18
2017-09-29T02:35:17.720Z,17.3
2017-09-29T02:35:58.263Z,17.23
2017-09-29T02:36:38.796Z,17.33
2017-09-29T02:37:19.331Z,17.25
2017-09-29T02:37:59.862Z,17.26
2017-09-29T02:38:40.397Z,17.21
2017-09-29T02:39:20.935Z,17.19
2017-09-29T02:40:01.470Z,17.25
2017-09-29T02:40:42.010Z,17.28
2017-09-29T02:41:22.554Z,17.31
2017-09-29T02:42:03.089Z,17.21
2017-09-29T02:42:43.617Z,17.21
2017-09-29T02:43:24.150Z,17.22
2017-09-29T02:44:04.682Z,17.28
2017-09-29T02:44:45.219Z,17.19
2017-09-29T02:45:25.763Z,17.21
2017-09-29T02:46:06.287Z,17.26
2017-09-29T02:46:46.822Z,17.22
2017-09-29T02:47:27.356Z,17.19
2017-09-29T02:48:07.895Z,17.33
2017-09-29T02:48:48.430Z,17.28
2017-09-29T02:49:28.960Z,17.26
2017-09-29T02:50:09.500Z,17.31
2017-09-29T02:50:50.031Z,17.31
2017-09-29T02:51:30.555Z,17.22
2017-09-29T02:52:11.100Z,17.3
2017-09-29T02:52:51.634Z,17.16
2017-09-29T02:53:32.170Z,17.18
2017-09-29T02:54:12.696Z,17.26
2017-09-29T02:54:53.226Z,17.26
2017-09-29T02:55:33.759Z,17.23
2017-09-29T02:56:14.303Z,17.21
2017-09-29T02:56:54.854Z,17.26
2017-09-29T02:57:35.380Z,17.16
2017-09-29T02:58:15.908Z,17.26
2017-09-29T02:58:56.443Z,17.23
2017-09-29T02:59:36.968Z,17.16
2017-09-29T03:00:17.514Z,17.22
2017-09-29T03:00:58.047Z,17.14
2017-09-29T03:01:38.590Z,17.25
2017-09-29T03:02:19.134Z,17.15
2017-09-29T03:02:59.673Z,17.15
2017-09-29T03:03:40.230Z,17.12
2017-09-29T03:04:20.758Z,17.03
2017-09-29T03:05:01.269Z,17.07
2017-09-29T03:05:41.806Z,17.04
2017-09-29T03:06:22.340Z,16.94
2017-09-29T03:07:02.883Z,17.03
2017-09-29T03:07:43.419Z,17
2017-09-29T03:08:23.944Z,17
2017-09-29T03:09:04.489Z,16.93
2017-09-29T03:09:45.057Z,16.93
2017-09-29T03:10:25.589Z,17
2017-09-29T03:11:06.121Z,16.91
2017-09-29T03:11:46.704Z,16.93
2017-09-29T03:12:27.239Z,16.94
2017-09-29T03:13:07.780Z,16.88
2017-09-29T03:13:48.322Z,16.94
2017-09-29T03:14:28.853Z,16.89
2017-09-29T03:15:09.395Z,16.86
2017-09-29T03:15:49.931Z,16.94
2017-09-29T03:16:30.473Z,16.94
2017-09-29T03:17:11.001Z,16.83
2017-09-29T03:17:51.538Z,16.85
2017-09-29T03:18:32.078Z,16.94
2017-09-29T03:19:12.611Z,16.89
2017-09-29T03:19:53.149Z,16.85
2017-09-29T03:20:33.676Z,16.88
2017-09-29T03:21:14.196Z,16.88
2017-09-29T03:21:54.735Z,16.83
2017-09-29T03:22:35.285Z,16.94
2017-09-29T03:23:15.821Z,16.83
2017-09-29T03:23:56.361Z,16.88
2017-09-29T03:24:36.898Z,16.88
2017-09-29T03:25:17.439Z,16.94
2017-09-29T03:25:57.990Z,16.91
2017-09-29T03:26:38.530Z,16.89
2017-09-29T03:27:19.086Z,16.83
2017-09-29T03:27:59.594Z,16.88
2017-09-29T03:28:40.133Z,16.94
2017-09-29T03:29:20.666Z,16.85
2017-09-29T03:30:01.208Z,16.89
2017-09-29T03:30:41.752Z,16.82
2017-09-29T03:31:22.296Z,16.88
2017-09-29T03:32:02.833Z,16.91
2017-09-29T03:32:43.360Z,16.89
2017-09-29T03:33:23.892Z,16.89
2017-09-29T03:34:04.438Z,16.91
2017-09-29T03:34:44.970Z,16.89
2017-09-29T03:35:25.516Z,16.86
2017-09-29T03:36:06.052Z,16.86
2017-09-29T03:36:46.590Z,16.94
2017-09-29T03:37:27.117Z,16.86
2017-09-29T03:38:07.656Z,16.82
2017-09-29T03:38:48.193Z,16.93
2017-09-29T03:39:28.734Z,16.88
2017-09-29T03:40:09.276Z,16.86
2017-09-29T03:40:49.817Z,16.86
2017-09-29T03:41:30.350Z,16.91
2017-09-29T03:42:10.895Z,16.98
2017-09-29T03:42:51.421Z,16.88
2017-09-29T03:43:31.960Z,16.86
2017-09-29T03:44:12.510Z,16.85
2017-09-29T03:44:53.049Z,16.85
2017-09-29T03:45:33.586Z,16.85
2017-09-29T03:46:14.129Z,16.81
2017-09-29T03:46:54.673Z,16.83
2017-09-29T03:47:35.213Z,16.94
2017-09-29T03:48:15.751Z,16.85
2017-09-29T03:48:56.289Z,16.86
2017-09-29T03:49:36.832Z,16.93
2017-09-29T03:50:17.363Z,16.83
2017-09-29T03:50:57.957Z,16.88
2017-09-29T03:51:38.589Z,16.79
2017-09-29T03:52:19.126Z,16.91
2017-09-29T03:52:59.660Z,16.83
2017-09-29T03:53:40.194Z,16.88
2017-09-29T03:54:20.738Z,16.78
2017-09-29T03:55:01.275Z,16.82
2017-09-29T03:55:41.839Z,16.81
2017-09-29T03:56:22.376Z,16.85
2017-09-29T03:57:02.919Z,16.78
2017-09-29T03:57:43.454Z,16.86
2017-09-29T03:58:23.986Z,16.81
2017-09-29T03:59:04.520Z,16.88
2017-09-29T03:59:45.069Z,16.78
2017-09-29T04:00:25.628Z,16.93
2017-09-29T04:01:06.172Z,16.86
2017-09-29T04:01:46.716Z,16.88
2017-09-29T04:02:27.252Z,16.76
2017-09-29T04:03:07.790Z,16.86
2017-09-29T04:03:48.328Z,16.88
2017-09-29T04:04:28.859Z,16.89
2017-09-29T04:05:09.392Z,16.86
2017-09-29T04:05:49.933Z,16.82
2017-09-29T04:06:31.192Z,16.89
2017-09-29T04:07:11.740Z,16.88
2017-09-29T04:07:52.275Z,16.93
2017-09-29T04:08:33.428Z,16.91
2017-09-29T04:09:14.009Z,16.88
2017-09-29T04:09:54.432Z,16.85
2017-09-29T04:10:34.892Z,16.81
2017-09-29T04:11:15.437Z,16.79
2017-09-29T04:11:55.966Z,16.88
2017-09-29T04:12:36.497Z,16.81
2017-09-29T04:13:17.020Z,16.83
2017-09-29T04:13:57.572Z,16.79
2017-09-29T04:14:38.088Z,16.86
2017-09-29T04:15:18.624Z,16.83
2017-09-29T04:15:59.164Z,16.82
2017-09-29T04:16:39.760Z,16.86
2017-09-29T04:17:20.483Z,16.82
2017-09-29T04:18:02.410Z,16.76
2017-09-29T04:18:43.010Z,16.71
2017-09-29T04:19:23.524Z,16.76
2017-09-29T04:20:04.061Z,16.79
2017-09-29T04:20:44.600Z,16.71
2017-09-29T04:21:25.132Z,16.75
2017-09-29T04:22:05.676Z,16.81
2017-09-29T04:22:46.216Z,16.75
2017-09-29T04:23:26.772Z,16.75
2017-09-29T04:24:07.316Z,16.7
2017-09-29T04:24:47.865Z,16.67
2017-09-29T04:25:28.394Z,16.68
2017-09-29T04:26:08.922Z,16.76
2017-09-29T04:26:49.445Z,16.67
2017-09-29T04:27:29.989Z,16.67
2017-09-29T04:28:10.537Z,16.67
2017-09-29T04:28:51.064Z,16.76
2017-09-29T04:29:31.577Z,16.68
2017-09-29T04:30:12.110Z,16.67
2017-09-29T04:30:52.649Z,16.68
2017-09-29T04:31:33.177Z,16.76
2017-09-29T04:32:13.717Z,16.67
2017-09-29T04:32:54.255Z,16.64
2017-09-29T04:33:34.790Z,16.63
2017-09-29T04:34:15.337Z,16.68
2017-09-29T04:34:55.831Z,16.61
2017-09-29T04:35:37.352Z,16.64
2017-09-29T04:36:17.848Z,16.58
2017-09-29T04:36:58.395Z,16.61
2017-09-29T04:37:38.923Z,16.67
2017-09-29T04:38:19.463Z,16.56
2017-09-29T04:38:59.976Z,16.64
2017-09-29T04:39:40.529Z,16.56
2017-09-29T04:40:21.069Z,16.63
2017-09-29T04:41:01.608Z,16.58
2017-09-29T04:41:42.122Z,16.57
2017-09-29T04:42:22.621Z,16.61
2017-09-29T04:43:03.150Z,16.57
2017-09-29T04:43:43.667Z,16.57
2017-09-29T04:44:24.215Z,16.57
2017-09-29T04:45:04.735Z,16.63
2017-09-29T04:45:45.317Z,16.58
2017-09-29T04:46:25.799Z,16.6
2017-09-29T04:47:06.324Z,16.64
2017-09-29T04:47:46.825Z,16.57
2017-09-29T04:48:27.351Z,16.53
2017-09-29T04:49:08.547Z,16.57
2017-09-29T04:49:51.412Z,16.64
2017-09-29T04:50:36.244Z,16.5
2017-09-29T04:51:16.776Z,16.52
2017-09-29T04:51:57.306Z,16.6
2017-09-29T04:52:37.847Z,16.58
2017-09-29T04:53:18.446Z,16.66
2017-09-29T04:53:58.923Z,16.52
2017-09-29T04:54:39.439Z,16.66
2017-09-29T04:55:19.987Z,16.64
2017-09-29T04:56:00.478Z,16.7
2017-09-29T04:56:40.983Z,16.7
2017-09-29T04:57:21.490Z,16.67
2017-09-29T04:58:01.995Z,16.61
2017-09-29T04:58:42.485Z,16.7
2017-09-29T04:59:23.009Z,16.64
2017-09-29T05:00:03.528Z,16.66
2017-09-29T05:00:44.063Z,16.68
2017-09-29T05:01:24.586Z,16.67
2017-09-29T05:02:05.121Z,16.6
2017-09-29T05:02:45.630Z,16.66
2017-09-29T05:03:26.199Z,16.57
2017-09-29T05:04:06.786Z,16.57
2017-09-29T05:04:47.327Z,16.68
2017-09-29T05:05:27.869Z,16.58
2017-09-29T05:06:08.405Z,16.58
2017-09-29T05:06:48.940Z,16.66
2017-09-29T05:07:29.480Z,16.58
2017-09-29T05:08:10.022Z,16.61
2017-09-29T05:08:50.566Z,16.63
2017-09-29T05:09:31.103Z,16.66
2017-09-29T05:10:11.632Z,16.58
2017-09-29T05:10:52.178Z,16.68
2017-09-29T05:11:32.714Z,16.61
2017-09-29T05:12:13.255Z,16.6
2017-09-29T05:12:53.798Z,16.58
2017-09-29T05:13:34.332Z,16.58
2017-09-29T05:14:14.853Z,16.56
2017-09-29T05:14:55.547Z,16.53
2017-09-29T05:15:36.148Z,16.57
2017-09-29T05:16:16.683Z,16.61
2017-09-29T05:16:57.218Z,16.61
2017-09-29T05:17:37.757Z,16.58
2017-09-29T05:18:18.290Z,16.58
2017-09-29T05:18:58.832Z,16.6
2017-09-29T05:19:39.376Z,16.56
2017-09-29T05:20:19.898Z,16.56
2017-09-29T05:21:00.439Z,16.58
2017-09-29T05:21:40.976Z,16.56
2017-09-29T05:22:21.517Z,16.58
2017-09-29T05:23:02.066Z,16.6
2017-09-29T05:23:42.608Z,16.61
2017-09-29T05:24:23.151Z,16.58
2017-09-29T05:25:03.694Z,16.6
2017-09-29T05:25:44.226Z,16.6
2017-09-29T05:26:24.773Z,16.61
2017-09-29T05:27:05.318Z,16.63
2017-09-29T05:27:45.855Z,16.64
2017-09-29T05:28:26.397Z,16.57
2017-09-29T05:29:06.970Z,16.64
2017-09-29T05:29:47.509Z,16.57
2017-09-29T05:30:28.061Z,16.56
2017-09-29T05:31:08.602Z,16.56
2017-09-29T05:31:49.140Z,16.6
2017-09-29T05:32:29.676Z,16.64
2017-09-29T05:33:10.218Z,16.64
2017-09-29T05:33:50.756Z,16.5
2017-09-29T05:34:31.295Z,16.52
2017-09-29T05:35:11.869Z,16.53
2017-09-29T05:35:52.400Z,16.64
2017-09-29T05:36:32.938Z,16.66
2017-09-29T05:37:13.481Z,16.63
2017-09-29T05:37:54.025Z,16.56
2017-09-29T05:38:34.567Z,16.57
2017-09-29T05:39:15.081Z,16.63
2017-09-29T05:39:55.622Z,16.53
2017-09-29T05:40:36.166Z,16.52
2017-09-29T05:41:16.713Z,16.61
2017-09-29T05:41:57.248Z,16.61
2017-09-29T05:42:37.793Z,16.6
2017-09-29T05:43:18.333Z,16.6
2017-09-29T05:43:58.870Z,16.53
2017-09-29T05:44:39.421Z,16.6
2017-09-29T05:45:19.966Z,16.61
2017-09-29T05:46:00.508Z,16.66
2017-09-29T05:46:41.038Z,16.58
2017-09-29T05:47:21.570Z,16.56
2017-09-29T05:48:02.110Z,16.58
2017-09-29T05:48:42.651Z,16.5
2017-09-29T05:49:23.189Z,16.61
2017-09-29T05:50:03.730Z,16.58
2017-09-29T05:50:44.271Z,16.6
2017-09-29T05:51:24.832Z,16.63
2017-09-29T05:52:05.373Z,16.57
2017-09-29T05:52:45.914Z,16.58
2017-09-29T05:53:26.458Z,16.58
2017-09-29T05:54:07.015Z,16.63
2017-09-29T05:54:47.555Z,16.56
2017-09-29T05:55:28.151Z,16.61
2017-09-29T05:56:08.688Z,16.66
2017-09-29T05:56:49.208Z,16.64
2017-09-29T05:57:29.745Z,16.68
2017-09-29T05:58:10.284Z,16.64
2017-09-29T05:58:50.823Z,16.64
2017-09-29T05:59:31.364Z,16.61
2017-09-29T06:00:11.911Z,16.64
2017-09-29T06:00:52.455Z,16.71
2017-09-29T06:01:32.996Z,16.67
2017-09-29T06:02:13.544Z,16.7
2017-09-29T06:02:54.082Z,16.66
2017-09-29T06:03:34.613Z,16.67
2017-09-29T06:04:15.165Z,16.67
2017-09-29T06:04:55.701Z,16.68
2017-09-29T06:05:36.241Z,16.61
2017-09-29T06:06:16.792Z,16.67
2017-09-29T06:06:57.330Z,16.73
2017-09-29T06:07:37.872Z,16.68
2017-09-29T06:08:18.412Z,16.66
2017-09-29T06:08:58.952Z,16.67
2017-09-29T06:09:39.498Z,16.64
2017-09-29T06:10:20.042Z,16.66
2017-09-29T06:11:00.578Z,16.64
2017-09-29T06:11:41.121Z,16.64
2017-09-29T06:12:21.659Z,16.66
2017-09-29T06:13:02.200Z,16.76
2017-09-29T06:13:42.738Z,16.71
2017-09-29T06:14:23.288Z,16.7
2017-09-29T06:15:03.831Z,16.64
2017-09-29T06:15:44.367Z,16.7
2017-09-29T06:16:24.910Z,16.79
2017-09-29T06:17:05.449Z,16.68
2017-09-29T06:17:46.014Z,16.73
2017-09-29T06:18:26.557Z,16.75
2017-09-29T06:19:07.098Z,16.81
2017-09-29T06:19:47.627Z,16.79
2017-09-29T06:20:28.171Z,16.82
2017-09-29T06:21:08.710Z,16.82
2017-09-29T06:21:49.259Z,16.83
2017-09-29T06:22:29.788Z,16.76
2017-09-29T06:23:10.326Z,16.81
2017-09-29T06:23:50.864Z,16.78
2017-09-29T06:24:31.406Z,16.75
2017-09-29T06:25:11.942Z,16.86
2017-09-29T06:25:52.478Z,16.88
2017-09-29T06:26:33.018Z,16.76
2017-09-29T06:27:13.560Z,16.85
2017-09-29T06:27:54.093Z,16.89
2017-09-29T06:28:34.642Z,16.85
2017-09-29T06:29:15.179Z,16.85
2017-09-29T06:29:55.723Z,16.86
2017-09-29T06:30:36.261Z,16.89
2017-09-29T06:31:16.814Z,16.83
2017-09-29T06:31:57.352Z,16.86
2017-09-29T06:32:37.888Z,16.86
2017-09-29T06:33:18.432Z,16.88
2017-09-29T06:33:58.969Z,16.89
2017-09-29T06:34:39.517Z,16.96
2017-09-29T06:35:20.055Z,16.85
2017-09-29T06:36:00.598Z,16.81
2017-09-29T06:36:41.140Z,16.86
2017-09-29T06:37:21.682Z,16.97
2017-09-29T06:38:02.227Z,16.93
2017-09-29T06:38:42.771Z,16.93
2017-09-29T06:39:23.351Z,16.96
2017-09-29T06:40:03.888Z,16.91
2017-09-29T06:40:44.422Z,16.93
2017-09-29T06:41:24.962Z,16.94
2017-09-29T06:42:05.498Z,16.94
2017-09-29T06:42:46.040Z,16.93
2017-09-29T06:43:26.593Z,16.89
2017-09-29T06:44:07.130Z,16.89
2017-09-29T06:44:47.666Z,16.94
2017-09-29T06:45:28.208Z,16.91
2017-09-29T06:46:08.754Z,16.89
2017-09-29T06:46:49.296Z,16.91
2017-09-29T06:47:29.832Z,16.96
2017-09-29T06:48:10.371Z,16.89
2017-09-29T06:48:50.904Z,16.93
2017-09-29T06:49:31.450Z,16.91
2017-09-29T06:50:11.992Z,16.88
2017-09-29T06:50:52.535Z,16.94
2017-09-29T06:51:33.071Z,16.88
2017-09-29T06:52:13.617Z,16.91
2017-09-29T06:52:54.153Z,16.85
2017-09-29T06:53:34.696Z,16.88
2017-09-29T06:54:15.236Z,16.88
2017-09-29T06:54:55.776Z,16.91
2017-09-29T06:55:36.312Z,16.89
2017-09-29T06:56:16.846Z,16.93
2017-09-29T06:56:57.390Z,16.94
2017-09-29T06:57:37.925Z,16.94
2017-09-29T06:58:18.470Z,16.91
2017-09-29T06:58:59.002Z,16.96
2017-09-29T06:59:39.537Z,17
2017-09-29T07:00:20.070Z,16.96
2017-09-29T07:01:00.616Z,16.98
2017-09-29T07:01:41.155Z,16.96
2017-09-29T07:02:21.695Z,16.97
2017-09-29T07:03:02.235Z,17.03
2017-09-29T07:03:42.782Z,16.96
2017-09-29T07:04:23.315Z,17.08
2017-09-29T07:05:03.861Z,17.07
2017-09-29T07:05:44.406Z,17.08
2017-09-29T07:06:24.947Z,17.04
2017-09-29T07:07:05.487Z,17.04
2017-09-29T07:07:46.023Z,17.01
2017-09-29T07:08:26.566Z,17.04
2017-09-29T07:09:07.104Z,17.06
2017-09-29T07:09:47.644Z,17.06
2017-09-29T07:10:28.185Z,17.06
2017-09-29T07:11:08.726Z,17.06
2017-09-29T07:11:49.262Z,17.06
2017-09-29T07:12:29.806Z,17.01
2017-09-29T07:13:10.351Z,17.03
2017-09-29T07:13:50.896Z,17.04
2017-09-29T07:14:31.429Z,17.08
2017-09-29T07:15:11.974Z,17.03
2017-09-29T07:15:52.518Z,17.06
2017-09-29T07:16:33.060Z,17.11
2017-09-29T07:17:13.611Z,17.15
2017-09-29T07:17:54.154Z,17.08
2017-09-29T07:18:34.683Z,17.11
2017-09-29T07:19:15.223Z,17.04
2017-09-29T07:19:55.769Z,17.12
2017-09-29T07:20:36.310Z,17.12
2017-09-29T07:21:16.840Z,17.16
2017-09-29T07:21:57.382Z,17.08
2017-09-29T07:22:37.919Z,17.18
2017-09-29T07:23:18.466Z,17.18
2017-09-29T07:23:59.022Z,17.16
2017-09-29T07:24:39.542Z,17.18
2017-09-29T07:25:20.084Z,17.15
2017-09-29T07:26:00.627Z,17.19
2017-09-29T07:26:41.156Z,17.23
2017-09-29T07:27:21.715Z,17.25
2017-09-29T07:28:02.243Z,17.23
2017-09-29T07:28:42.788Z,17.33
2017-09-29T07:29:23.324Z,17.28
2017-09-29T07:30:03.865Z,17.19
2017-09-29T07:30:44.406Z,17.18
2017-09-29T07:31:24.947Z,17.21
2017-09-29T07:32:05.490Z,17.26
2017-09-29T07:32:46.034Z,17.28
2017-09-29T07:33:26.575Z,17.25
2017-09-29T07:34:07.116Z,17.3
2017-09-29T07:34:47.658Z,17.33
2017-09-29T07:35:28.196Z,17.3
2017-09-29T07:36:08.732Z,17.34
2017-09-29T07:36:49.279Z,17.37
2017-09-29T07:37:29.828Z,17.48
2017-09-29T07:38:10.368Z,17.31
2017-09-29T07:38:50.913Z,17.46
2017-09-29T07:39:31.453Z,17.49
2017-09-29T07:40:11.993Z,17.44
2017-09-29T07:40:52.540Z,17.49
2017-09-29T07:41:33.081Z,17.48
2017-09-29T07:42:13.622Z,17.51
2017-09-29T07:42:54.155Z,17.55
2017-09-29T07:43:34.696Z,17.64
2017-09-29T07:44:15.236Z,17.63
2017-09-29T07:44:55.775Z,17.59
2017-09-29T07:45:36.311Z,17.62
2017-09-29T07:46:16.852Z,17.59
2017-09-29T07:46:57.397Z,17.63
2017-09-29T07:47:37.970Z,17.62
2017-09-29T07:48:18.512Z,17.56
2017-09-29T07:48:59.050Z,17.64
2017-09-29T07:49:39.594Z,17.55
2017-09-29T07:50:20.129Z,17.59
2017-09-29T07:51:00.666Z,17.63
2017-09-29T07:51:41.208Z,17.58
2017-09-29T07:52:21.746Z,17.58
2017-09-29T07:53:02.296Z,17.58
2017-09-29T07:53:42.830Z,17.62
2017-09-29T07:54:23.378Z,17.63
2017-09-29T07:55:03.918Z,17.58
2017-09-29T07:55:44.448Z,17.58
2017-09-29T07:56:24.978Z,17.56
2017-09-29T07:57:05.538Z,17.62
2017-09-29T07:57:46.076Z,17.55
2017-09-29T07:58:26.616Z,17.51
2017-09-29T07:59:07.153Z,17.52
2017-09-29T07:59:47.704Z,17.52
2017-09-29T08:00:28.239Z,17.46
2017-09-29T08:01:08.777Z,17.46
2017-09-29T08:01:49.318Z,17.43
2017-09-29T08:02:29.861Z,17.44
2017-09-29T08:03:10.401Z,17.44
2017-09-29T08:03:50.945Z,17.37
2017-09-29T08:04:31.489Z,17.41
2017-09-29T08:05:12.021Z,17.4
2017-09-29T08:05:52.563Z,17.44
2017-09-29T08:06:33.108Z,17.44
2017-09-29T08:07:13.641Z,17.43
2017-09-29T08:07:54.189Z,17.48
2017-09-29T08:08:34.728Z,17.49
2017-09-29T08:09:15.268Z,17.58
2017-09-29T08:09:55.819Z,17.49
2017-09-29T08:10:36.356Z,17.55
2017-09-29T08:11:16.899Z,17.58
2017-09-29T08:11:57.437Z,17.58
2017-09-29T08:12:37.984Z,17.58
2017-09-29T08:13:18.527Z,17.66
2017-09-29T08:13:59.068Z,17.7
2017-09-29T08:14:39.602Z,17.71
2017-09-29T08:15:20.178Z,17.74
2017-09-29T08:16:00.685Z,17.79
2017-09-29T08:16:41.230Z,17.79
2017-09-29T08:17:21.767Z,17.79
2017-09-29T08:18:02.309Z,17.92
2017-09-29T08:18:42.841Z,17.89
2017-09-29T08:19:23.375Z,17.93
2017-09-29T08:20:03.923Z,17.89
2017-09-29T08:20:44.454Z,17.99
2017-09-29T08:21:25.003Z,18.02
2017-09-29T08:22:05.542Z,17.99
2017-09-29T08:22:46.084Z,18.02
2017-09-29T08:23:26.630Z,18.05
2017-09-29T08:24:07.176Z,18.1
2017-09-29T08:24:47.715Z,18.18
2017-09-29T08:25:28.251Z,18.26
2017-09-29T08:26:08.789Z,18.3
2017-09-29T08:26:49.332Z,18.26
2017-09-29T08:27:29.879Z,18.26
2017-09-29T08:28:10.418Z,18.39
2017-09-29T08:28:50.964Z,18.37
2017-09-29T08:29:31.510Z,18.36
2017-09-29T08:30:12.049Z,18.39
2017-09-29T08:30:52.595Z,18.37
2017-09-29T08:31:33.134Z,18.32
2017-09-29T08:32:13.661Z,18.35
2017-09-29T08:32:54.202Z,18.41
2017-09-29T08:33:34.737Z,18.33
2017-09-29T08:34:15.287Z,18.32
2017-09-29T08:34:55.828Z,18.35
2017-09-29T08:35:36.401Z,18.44
2017-09-29T08:36:16.929Z,18.51
2017-09-29T08:36:57.472Z,18.51
2017-09-29T08:37:38.008Z,18.48
2017-09-29T08:38:18.549Z,18.55
2017-09-29T08:38:59.097Z,18.52
2017-09-29T08:39:39.635Z,18.63
2017-09-29T08:40:20.176Z,18.67
2017-09-29T08:41:00.704Z,18.7
2017-09-29T08:41:41.246Z,18.73
2017-09-29T08:42:21.795Z,18.81
2017-09-29T08:43:02.329Z,18.87
2017-09-29T08:43:42.915Z,19
2017-09-29T08:44:23.451Z,18.99